createdAt,value
2019-03-17T00:01:59.323Z,4.30
2019-03-17T00:04:31.744Z,4.70
2019-03-17T00:06:58.820Z,5.05
2019-03-17T00:09:27.755Z,4.10
2019-03-17T00:11:56.635Z,4.30
2019-03-17T00:14:25.559Z,4.65
2019-03-17T00:16:54.420Z,4.70
2019-03-17T00:19:23.349Z,6.20
2019-03-17T00:21:52.208Z,5.67
2019-03-17T00:24:21.327Z,5.42
2019-03-17T00:26:50.415Z,5.55
2019-03-17T00:29:19.327Z,5.95
2019-03-17T00:31:48.294Z,6.87
2019-03-17T00:34:17.518Z,7.92
2019-03-17T00:36:46.471Z,5.92
2019-03-17T00:39:15.402Z,6.08
2019-03-17T00:41:44.222Z,6.40
2019-03-17T00:44:13.107Z,6.78
2019-03-17T00:46:41.903Z,6.20
2019-03-17T00:49:10.946Z,6.72
2019-03-17T00:51:39.940Z,5.58
2019-03-17T00:54:08.869Z,6.70
2019-03-17T00:56:37.998Z,6.35
2019-03-17T00:59:06.888Z,6.70
2019-03-17T01:01:36.287Z,7.47
2019-03-17T01:04:05.883Z,7.42
2019-03-17T01:06:34.803Z,7.33
2019-03-17T01:09:04.384Z,5.90
2019-03-17T01:11:33.358Z,6.03
2019-03-17T01:14:02.331Z,6.55
2019-03-17T01:16:31.231Z,7.75
2019-03-17T01:19:00.100Z,6.67
2019-03-17T01:21:29.495Z,6.58
2019-03-17T01:23:58.343Z,7.45
2019-03-17T01:26:27.212Z,7.00
2019-03-17T01:28:56.034Z,6.37
2019-03-17T01:31:24.933Z,6.10
2019-03-17T01:33:54.478Z,8.20
2019-03-17T01:36:23.320Z,7.35
2019-03-17T01:38:52.154Z,7.30
2019-03-17T01:41:21.085Z,6.65
2019-03-17T01:43:50.473Z,7.72
2019-03-17T01:46:19.617Z,6.50
2019-03-17T01:48:48.527Z,8.15
2019-03-17T01:51:17.471Z,7.30
2019-03-17T01:53:46.426Z,7.97
2019-03-17T01:56:15.379Z,7.60
2019-03-17T01:58:44.498Z,8.25
2019-03-17T02:01:13.398Z,6.67
2019-03-17T02:03:42.227Z,7.12
2019-03-17T02:06:11.225Z,6.83
2019-03-17T02:08:40.182Z,7.12
2019-03-17T02:11:09.170Z,6.78
2019-03-17T02:13:38.187Z,6.35
2019-03-17T02:16:07.124Z,7.87
2019-03-17T02:18:35.985Z,7.10
2019-03-17T02:21:05.080Z,7.62
2019-03-17T02:23:33.959Z,7.78
2019-03-17T02:26:02.813Z,8.40
2019-03-17T02:28:31.693Z,7.62
2019-03-17T02:31:00.700Z,8.05
2019-03-17T02:33:29.512Z,7.15
2019-03-17T02:35:58.410Z,6.72
2019-03-17T02:38:27.287Z,8.35
2019-03-17T02:40:58.625Z,7.53
2019-03-17T02:43:27.568Z,7.83
2019-03-17T02:45:56.468Z,7.33
2019-03-17T02:48:25.626Z,8.05
2019-03-17T02:50:54.567Z,7.50
2019-03-17T02:53:23.563Z,7.35
2019-03-17T02:55:52.477Z,7.72
2019-03-17T02:58:21.522Z,6.85
2019-03-17T03:00:50.495Z,7.67
2019-03-17T03:03:19.429Z,7.80
2019-03-17T03:05:54.905Z,7.97
2019-03-17T03:08:18.990Z,8.13
2019-03-17T03:10:47.954Z,7.72
2019-03-17T03:13:16.867Z,6.55
2019-03-17T03:15:45.820Z,6.45
2019-03-17T03:18:14.663Z,7.70
2019-03-17T03:20:43.567Z,7.35
2019-03-17T03:23:12.403Z,7.00
2019-03-17T03:25:41.397Z,6.60
2019-03-17T03:28:10.433Z,7.22
2019-03-17T03:30:39.361Z,7.78
2019-03-17T03:33:09.381Z,7.62
2019-03-17T03:35:38.434Z,7.00
2019-03-17T03:38:07.372Z,8.18
2019-03-17T03:40:36.312Z,7.22
2019-03-17T03:43:05.260Z,7.40
2019-03-17T03:45:34.138Z,7.12
2019-03-17T03:48:03.122Z,8.78
2019-03-17T03:50:32.124Z,8.08
2019-03-17T03:53:01.040Z,6.90
2019-03-17T03:55:30.145Z,7.87
2019-03-17T03:57:59.219Z,8.08
2019-03-17T04:00:28.236Z,7.22
2019-03-17T04:02:57.272Z,7.70
2019-03-17T04:05:26.258Z,8.13
2019-03-17T04:07:55.212Z,7.90
2019-03-17T04:10:24.035Z,7.22
2019-03-17T04:12:53.019Z,8.98
2019-03-17T04:15:21.937Z,8.28
2019-03-17T04:17:50.808Z,7.97
2019-03-17T04:20:19.692Z,8.10
2019-03-17T04:22:48.537Z,8.75
2019-03-17T04:25:18.027Z,7.70
2019-03-17T04:27:47.029Z,7.80
2019-03-17T04:30:15.979Z,7.35
2019-03-17T04:32:45.016Z,8.00
2019-03-17T04:35:13.811Z,7.28
2019-03-17T04:37:42.657Z,7.35
2019-03-17T04:40:11.689Z,7.12
2019-03-17T04:42:40.636Z,6.53
2019-03-17T04:45:09.772Z,6.17
2019-03-17T04:47:38.697Z,5.70
2019-03-17T04:50:08.229Z,5.85
2019-03-17T04:52:37.333Z,5.08
2019-03-17T04:55:06.323Z,5.10
2019-03-17T04:57:35.623Z,5.33
2019-03-17T05:00:05.154Z,5.40
2019-03-17T05:02:34.166Z,5.67
2019-03-17T05:05:03.342Z,4.85
2019-03-17T05:07:32.216Z,5.35
2019-03-17T05:10:01.122Z,3.92
2019-03-17T05:12:30.030Z,3.98
2019-03-17T05:15:00.496Z,5.03
2019-03-17T05:17:29.343Z,6.03
2019-03-17T05:19:58.235Z,4.55
2019-03-17T05:22:27.559Z,4.97
2019-03-17T05:24:56.552Z,4.85
2019-03-17T05:27:25.368Z,4.50
2019-03-17T05:29:54.197Z,4.85
2019-03-17T05:32:23.049Z,5.05
2019-03-17T05:34:51.942Z,4.75
2019-03-17T05:37:20.829Z,5.20
2019-03-17T05:39:49.619Z,5.25
2019-03-17T05:42:18.435Z,5.97
2019-03-17T05:44:47.195Z,4.78
2019-03-17T05:47:16.019Z,5.75
2019-03-17T05:49:44.862Z,4.75
2019-03-17T05:52:14.078Z,5.10
2019-03-17T05:54:43.002Z,6.15
2019-03-17T05:57:11.916Z,5.35
2019-03-17T05:59:40.901Z,4.95
2019-03-17T06:02:09.916Z,5.03
2019-03-17T06:04:38.789Z,4.90
2019-03-17T06:07:18.091Z,4.90
2019-03-17T06:09:38.235Z,6.35
2019-03-17T06:12:07.051Z,4.75
2019-03-17T06:14:35.992Z,5.03
2019-03-17T06:17:04.979Z,5.87
2019-03-17T06:19:33.792Z,4.62
2019-03-17T06:22:02.771Z,4.47
2019-03-17T06:24:31.660Z,4.65
2019-03-17T06:27:00.470Z,4.60
2019-03-17T06:29:29.372Z,4.10
2019-03-17T06:31:58.334Z,4.87
2019-03-17T06:34:27.306Z,5.25
2019-03-17T06:36:56.152Z,5.10
2019-03-17T06:39:24.959Z,5.40
2019-03-17T06:41:53.759Z,5.87
2019-03-17T06:44:22.534Z,5.50
2019-03-17T06:46:51.340Z,5.25
2019-03-17T06:49:20.129Z,5.72
2019-03-17T06:51:48.930Z,5.53
2019-03-17T06:54:17.776Z,4.37
2019-03-17T06:56:46.649Z,1.87
2019-03-17T06:59:17.663Z,1.50
2019-03-17T07:01:45.993Z,1.67
2019-03-17T07:04:14.803Z,1.10
2019-03-17T07:06:43.667Z,1.75
2019-03-17T07:09:12.527Z,0.88
2019-03-17T07:11:41.489Z,1.10
2019-03-17T07:14:10.632Z,1.20
2019-03-17T07:16:39.526Z,1.52
2019-03-17T07:19:08.552Z,1.70
2019-03-17T07:21:37.440Z,1.50
2019-03-17T07:24:06.452Z,1.60
2019-03-17T07:26:35.355Z,1.12
2019-03-17T07:29:04.343Z,1.70
2019-03-17T07:31:33.171Z,2.37
2019-03-17T07:34:02.037Z,2.67
2019-03-17T07:36:31.094Z,1.67
2019-03-17T07:39:11.087Z,1.47
2019-03-17T07:41:30.537Z,1.45
2019-03-17T07:43:59.352Z,2.08
2019-03-17T07:46:28.215Z,1.42
2019-03-17T07:48:57.074Z,1.67
2019-03-17T07:51:25.892Z,1.30
2019-03-17T07:53:54.781Z,1.50
2019-03-17T07:56:23.607Z,1.20
2019-03-17T07:58:52.508Z,1.15
2019-03-17T08:01:21.456Z,1.50
2019-03-17T08:03:50.279Z,1.27
2019-03-17T08:06:19.078Z,1.22
2019-03-17T08:08:48.023Z,1.45
2019-03-17T08:11:16.991Z,2.00
2019-03-17T08:13:45.910Z,1.10
2019-03-17T08:16:14.820Z,1.10
2019-03-17T08:18:43.903Z,1.37
2019-03-17T08:21:12.834Z,1.45
2019-03-17T08:23:41.772Z,0.80
2019-03-17T08:26:10.641Z,1.30
2019-03-17T08:28:39.585Z,1.15
2019-03-17T08:31:08.569Z,1.25
2019-03-17T08:33:37.464Z,1.47
2019-03-17T08:36:06.446Z,1.27
2019-03-17T08:38:35.431Z,1.65
2019-03-17T08:41:04.337Z,1.02
2019-03-17T08:43:33.530Z,1.30
2019-03-17T08:46:02.448Z,1.65
2019-03-17T08:48:32.664Z,1.70
2019-03-17T08:51:01.646Z,1.05
2019-03-17T08:53:30.499Z,1.50
2019-03-17T08:55:59.328Z,1.70
2019-03-17T08:58:28.167Z,1.47
2019-03-17T09:00:57.141Z,1.35
2019-03-17T09:03:26.002Z,2.00
2019-03-17T09:05:55.017Z,1.27
2019-03-17T09:08:34.245Z,2.00
2019-03-17T09:10:54.629Z,1.30
2019-03-17T09:13:23.798Z,1.92
2019-03-17T09:15:52.841Z,1.60
2019-03-17T09:18:21.940Z,1.95
2019-03-17T09:20:51.026Z,1.65
2019-03-17T09:23:20.003Z,2.90
2019-03-17T09:25:48.850Z,2.00
2019-03-17T09:28:17.718Z,2.25
2019-03-17T09:30:46.707Z,2.00
2019-03-17T09:33:15.840Z,1.72
2019-03-17T09:35:44.726Z,1.85
2019-03-17T09:38:13.512Z,2.45
2019-03-17T09:40:42.463Z,2.42
2019-03-17T09:43:11.421Z,2.00
2019-03-17T09:45:40.369Z,2.80
2019-03-17T09:48:09.375Z,1.57
2019-03-17T09:50:38.455Z,2.20
2019-03-17T09:53:07.810Z,2.00
2019-03-17T09:55:36.899Z,1.92
2019-03-17T09:58:05.882Z,1.57
2019-03-17T10:00:34.906Z,1.98
2019-03-17T10:03:04.128Z,1.35
2019-03-17T10:05:33.182Z,2.20
2019-03-17T10:08:02.156Z,2.20
2019-03-17T10:10:45.530Z,2.70
2019-03-17T10:13:14.523Z,1.55
2019-03-17T10:15:43.415Z,1.42
2019-03-17T10:18:12.316Z,1.95
2019-03-17T10:20:41.248Z,1.65
2019-03-17T10:23:10.193Z,1.77
2019-03-17T10:25:38.999Z,1.80
2019-03-17T10:28:07.839Z,1.35
2019-03-17T10:30:37.175Z,2.27
2019-03-17T10:33:06.300Z,4.70
2019-03-17T10:35:35.226Z,1.70
2019-03-17T10:38:04.123Z,1.47
2019-03-17T10:40:32.924Z,1.62
2019-03-17T10:43:01.823Z,1.37
2019-03-17T10:45:30.987Z,2.17
2019-03-17T10:47:59.877Z,1.40
2019-03-17T10:50:29.172Z,1.67
2019-03-17T10:52:58.143Z,1.75
2019-03-17T10:55:26.949Z,1.90
2019-03-17T10:57:56.007Z,1.30
2019-03-17T11:00:25.048Z,1.82
2019-03-17T11:02:54.449Z,1.47
2019-03-17T11:05:23.502Z,3.05
2019-03-17T11:07:52.681Z,1.95
2019-03-17T11:10:21.721Z,1.98
2019-03-17T11:12:50.698Z,1.72
2019-03-17T11:15:19.649Z,2.00
2019-03-17T11:17:50.718Z,1.80
2019-03-17T11:20:19.743Z,1.12
2019-03-17T11:22:48.788Z,1.82
2019-03-17T11:25:17.735Z,1.85
2019-03-17T11:27:46.919Z,1.40
2019-03-17T11:30:16.030Z,2.20
2019-03-17T11:32:45.076Z,1.72
2019-03-17T11:35:14.014Z,1.27
2019-03-17T11:37:42.945Z,1.25
2019-03-17T11:40:12.700Z,1.40
2019-03-17T11:42:41.590Z,1.65
2019-03-17T11:45:12.068Z,1.30
2019-03-17T11:47:41.024Z,1.62
2019-03-17T11:50:10.684Z,1.60
2019-03-17T11:52:39.712Z,1.25
2019-03-17T11:55:08.937Z,1.50
2019-03-17T11:57:38.113Z,1.40
2019-03-17T12:00:07.823Z,1.70
2019-03-17T12:02:36.792Z,1.55
2019-03-17T12:05:06.117Z,1.42
2019-03-17T12:07:34.993Z,1.40
2019-03-17T12:10:04.209Z,1.87
2019-03-17T12:12:33.221Z,1.55
2019-03-17T12:15:02.099Z,1.22
2019-03-17T12:17:30.975Z,1.00
2019-03-17T12:20:00.025Z,1.42
2019-03-17T12:22:28.855Z,1.40
2019-03-17T12:24:57.768Z,1.42
2019-03-17T12:27:26.666Z,1.60
2019-03-17T12:29:55.623Z,1.27
2019-03-17T12:32:24.467Z,1.75
2019-03-17T12:34:53.382Z,1.52
2019-03-17T12:37:22.282Z,1.98
2019-03-17T12:40:02.039Z,2.20
2019-03-17T12:42:21.655Z,2.25
2019-03-17T12:44:50.471Z,1.67
2019-03-17T12:47:19.263Z,1.85
2019-03-17T12:49:48.083Z,1.90
2019-03-17T12:52:16.906Z,1.90
2019-03-17T12:54:45.746Z,1.55
2019-03-17T12:57:14.552Z,1.25
2019-03-17T12:59:43.428Z,1.37
2019-03-17T13:02:12.239Z,1.22
2019-03-17T13:04:41.072Z,1.20
2019-03-17T13:07:09.855Z,1.17
2019-03-17T13:09:38.721Z,1.20
2019-03-17T13:12:07.956Z,1.20
2019-03-17T13:14:36.795Z,1.25
2019-03-17T13:17:05.582Z,1.07
2019-03-17T13:19:34.480Z,2.80
2019-03-17T13:22:03.302Z,1.10
2019-03-17T13:24:32.256Z,1.30
2019-03-17T13:27:01.125Z,1.77
2019-03-17T13:29:29.988Z,0.80
2019-03-17T13:31:58.840Z,1.30
2019-03-17T13:34:27.740Z,1.05
2019-03-17T13:36:56.554Z,1.30
2019-03-17T13:39:25.400Z,0.82
2019-03-17T13:41:54.959Z,0.90
2019-03-17T13:44:23.795Z,1.47
2019-03-17T13:46:52.672Z,1.35
2019-03-17T13:49:21.663Z,1.47
2019-03-17T13:51:50.536Z,1.32
2019-03-17T13:54:19.342Z,1.05
2019-03-17T13:56:48.143Z,0.72
2019-03-17T13:59:17.003Z,0.80
2019-03-17T14:01:45.827Z,1.05
2019-03-17T14:04:17.631Z,1.35
2019-03-17T14:06:45.902Z,1.20
2019-03-17T14:09:14.811Z,1.87
2019-03-17T14:11:43.723Z,0.70
2019-03-17T14:14:12.560Z,0.72
2019-03-17T14:16:41.457Z,1.52
2019-03-17T14:19:10.300Z,1.07
2019-03-17T14:21:39.118Z,0.80
2019-03-17T14:24:08.064Z,1.00
2019-03-17T14:26:36.972Z,1.10
2019-03-17T14:29:06.039Z,1.30
2019-03-17T14:31:34.867Z,0.95
2019-03-17T14:34:03.800Z,0.60
2019-03-17T14:36:32.664Z,1.20
2019-03-17T14:39:01.618Z,0.80
2019-03-17T14:41:30.511Z,1.32
2019-03-17T14:43:59.472Z,0.90
2019-03-17T14:46:28.372Z,0.95
2019-03-17T14:48:57.264Z,0.90
2019-03-17T14:51:26.073Z,1.05
2019-03-17T14:53:54.975Z,1.35
2019-03-17T14:56:23.919Z,0.93
2019-03-17T14:58:52.816Z,1.32
2019-03-17T15:01:21.646Z,1.42
2019-03-17T15:03:50.432Z,0.93
2019-03-17T15:06:19.592Z,1.67
2019-03-17T15:08:48.402Z,0.95
2019-03-17T15:11:17.243Z,1.30
2019-03-17T15:13:46.059Z,1.60
2019-03-17T15:16:14.864Z,1.20
2019-03-17T15:18:43.656Z,1.00
2019-03-17T15:21:12.496Z,1.30
2019-03-17T15:23:41.390Z,0.80
2019-03-17T15:26:10.226Z,1.17
2019-03-17T15:28:39.123Z,1.25
2019-03-17T15:31:11.918Z,1.20
2019-03-17T15:33:38.612Z,1.65
2019-03-17T15:36:07.581Z,1.32
2019-03-17T15:38:36.387Z,1.17
2019-03-17T15:41:17.591Z,1.60
2019-03-17T15:43:36.423Z,1.10
2019-03-17T15:46:05.406Z,1.10
2019-03-17T15:48:34.199Z,1.57
2019-03-17T15:51:03.120Z,1.45
2019-03-17T15:53:31.923Z,1.60
2019-03-17T15:56:00.801Z,1.70
2019-03-17T15:58:29.770Z,1.40
2019-03-17T16:00:58.645Z,1.90
2019-03-17T16:03:27.445Z,2.37
2019-03-17T16:05:56.335Z,1.60
2019-03-17T16:08:25.209Z,1.45
2019-03-17T16:10:54.157Z,1.92
2019-03-17T16:13:22.987Z,1.50
2019-03-17T16:15:51.837Z,1.55
2019-03-17T16:18:20.662Z,2.20
2019-03-17T16:20:49.619Z,1.60
2019-03-17T16:23:18.447Z,1.70
2019-03-17T16:25:50.360Z,1.50
2019-03-17T16:28:18.014Z,1.70
2019-03-17T16:30:46.924Z,1.70
2019-03-17T16:33:15.890Z,1.50
2019-03-17T16:35:46.331Z,2.05
2019-03-17T16:38:15.494Z,1.62
2019-03-17T16:40:44.462Z,1.65
2019-03-17T16:43:13.381Z,2.92
2019-03-17T16:45:42.291Z,1.35
2019-03-17T16:48:11.122Z,1.50
2019-03-17T16:50:40.082Z,1.25
2019-03-17T16:53:08.954Z,1.20
2019-03-17T16:55:37.778Z,1.80
2019-03-17T16:58:06.795Z,1.80
2019-03-17T17:00:36.565Z,1.30
2019-03-17T17:03:05.564Z,1.50
2019-03-17T17:05:35.224Z,1.62
2019-03-17T17:08:04.323Z,1.57
2019-03-17T17:10:33.403Z,1.60
2019-03-17T17:13:02.217Z,1.32
2019-03-17T17:15:31.191Z,1.40
2019-03-17T17:18:00.040Z,1.12
2019-03-17T17:20:29.171Z,1.77
2019-03-17T17:22:58.138Z,1.52
2019-03-17T17:25:26.973Z,1.70
2019-03-17T17:27:55.843Z,2.30
2019-03-17T17:30:24.781Z,2.10
2019-03-17T17:32:53.870Z,1.50
2019-03-17T17:35:22.775Z,1.60
2019-03-17T17:37:51.754Z,1.37
2019-03-17T17:40:20.911Z,1.85
2019-03-17T17:42:51.939Z,1.37
2019-03-17T17:45:21.474Z,1.10
2019-03-17T17:47:50.432Z,1.12
2019-03-17T17:50:19.528Z,1.02
2019-03-17T17:52:48.483Z,1.30
2019-03-17T17:55:17.646Z,1.70
2019-03-17T17:57:46.604Z,2.37
2019-03-17T18:00:18.864Z,1.70
2019-03-17T18:02:48.199Z,1.30
2019-03-17T18:05:17.297Z,1.47
2019-03-17T18:07:46.574Z,1.50
2019-03-17T18:10:15.792Z,1.45
2019-03-17T18:12:45.237Z,1.70
2019-03-17T18:15:15.523Z,1.77
2019-03-17T18:17:44.681Z,1.40
2019-03-17T18:20:13.868Z,1.62
2019-03-17T18:22:43.149Z,1.75
2019-03-17T18:25:13.334Z,1.70
2019-03-17T18:27:42.551Z,1.80
2019-03-17T18:30:13.119Z,1.80
2019-03-17T18:32:42.452Z,1.37
2019-03-17T18:35:11.782Z,2.20
2019-03-17T18:37:41.053Z,2.45
2019-03-17T18:40:11.551Z,2.25
2019-03-17T18:42:40.632Z,1.80
2019-03-17T18:45:11.358Z,2.37
2019-03-17T18:47:40.376Z,2.12
2019-03-17T18:50:19.357Z,2.90
2019-03-17T18:52:40.322Z,1.25
2019-03-17T18:55:09.760Z,1.40
2019-03-17T18:57:38.831Z,1.52
2019-03-17T19:00:13.407Z,1.12
2019-03-17T19:02:42.503Z,2.02
2019-03-17T19:05:12.109Z,2.00
2019-03-17T19:07:41.379Z,1.60
2019-03-17T19:10:10.610Z,1.62
2019-03-17T19:12:45.346Z,1.50
2019-03-17T19:15:11.328Z,1.60
2019-03-17T19:17:40.333Z,2.00
2019-03-17T19:20:10.093Z,1.80
2019-03-17T19:22:39.174Z,1.50
2019-03-17T19:25:09.512Z,1.98
2019-03-17T19:27:38.515Z,1.80
2019-03-17T19:30:08.767Z,1.57
2019-03-17T19:32:37.930Z,2.72
2019-03-17T19:35:07.203Z,2.83
2019-03-17T19:37:36.263Z,1.55
2019-03-17T19:40:05.745Z,1.27
2019-03-17T19:42:34.660Z,1.70
2019-03-17T19:45:03.626Z,1.92
2019-03-17T19:47:32.644Z,2.30
2019-03-17T19:50:01.776Z,1.40
2019-03-17T19:52:30.735Z,1.17
2019-03-17T19:54:59.855Z,1.70
2019-03-17T19:57:28.998Z,1.30
2019-03-17T19:59:58.012Z,2.35
2019-03-17T20:02:27.259Z,1.42
2019-03-17T20:04:56.268Z,2.15
2019-03-17T20:07:25.221Z,2.30
2019-03-17T20:09:54.312Z,1.90
2019-03-17T20:12:23.449Z,1.85
2019-03-17T20:14:52.667Z,2.20
2019-03-17T20:17:21.814Z,1.30
2019-03-17T20:19:50.879Z,3.02
2019-03-17T20:22:19.700Z,2.80
2019-03-17T20:24:48.565Z,1.98
2019-03-17T20:27:18.086Z,2.45
2019-03-17T20:29:46.944Z,1.67
2019-03-17T20:32:15.783Z,1.98
2019-03-17T20:34:44.666Z,1.70
2019-03-17T20:37:13.636Z,1.30
2019-03-17T20:39:42.601Z,1.60
2019-03-17T20:42:11.625Z,1.45
2019-03-17T20:44:40.520Z,2.55
2019-03-17T20:47:09.408Z,1.67
2019-03-17T20:49:38.476Z,1.85
2019-03-17T20:52:07.542Z,2.77
2019-03-17T20:54:36.405Z,2.37
2019-03-17T20:57:05.691Z,2.37
2019-03-17T20:59:34.668Z,2.00
2019-03-17T21:02:03.661Z,2.12
2019-03-17T21:04:33.007Z,2.42
2019-03-17T21:07:02.210Z,1.90
2019-03-17T21:09:31.469Z,2.00
2019-03-17T21:12:01.492Z,1.90
2019-03-17T21:14:30.445Z,2.05
2019-03-17T21:16:59.410Z,1.90
2019-03-17T21:19:28.298Z,2.35
2019-03-17T21:21:58.253Z,2.50
2019-03-17T21:24:27.251Z,1.90
2019-03-17T21:26:56.118Z,1.70
2019-03-17T21:29:25.030Z,1.60
2019-03-17T21:31:54.082Z,1.70
2019-03-17T21:34:23.022Z,2.33
2019-03-17T21:36:51.831Z,2.00
2019-03-17T21:39:20.839Z,1.98
2019-03-17T21:41:49.953Z,2.27
2019-03-17T21:44:18.990Z,2.45
2019-03-17T21:46:48.011Z,1.80
2019-03-17T21:49:17.167Z,1.85
2019-03-17T21:51:46.156Z,2.02
2019-03-17T21:54:15.205Z,1.62
2019-03-17T21:56:44.348Z,2.25
2019-03-17T21:59:13.558Z,2.00
2019-03-17T22:01:42.552Z,3.12
2019-03-17T22:04:11.560Z,2.27
2019-03-17T22:06:40.528Z,1.95
2019-03-17T22:09:10.580Z,2.10
2019-03-17T22:11:39.645Z,2.80
2019-03-17T22:14:12.215Z,1.37
2019-03-17T22:16:39.102Z,3.15
2019-03-17T22:19:08.174Z,2.05
2019-03-17T22:21:37.051Z,1.60
2019-03-17T22:24:06.282Z,2.50
2019-03-17T22:26:35.460Z,3.00
2019-03-17T22:29:04.576Z,2.45
2019-03-17T22:31:33.493Z,2.17
2019-03-17T22:34:02.487Z,1.42
2019-03-17T22:36:31.490Z,2.00
2019-03-17T22:39:00.431Z,2.30
2019-03-17T22:41:29.409Z,2.05
2019-03-17T22:43:58.337Z,2.50
2019-03-17T22:46:27.229Z,2.12
2019-03-17T22:48:56.215Z,1.67
2019-03-17T22:51:25.297Z,2.12
2019-03-17T22:53:54.832Z,1.65
2019-03-17T22:56:23.872Z,2.45
2019-03-17T22:58:52.900Z,1.80
2019-03-17T23:01:22.015Z,2.75
2019-03-17T23:03:51.156Z,2.27
2019-03-17T23:06:20.195Z,1.87
2019-03-17T23:08:49.199Z,2.15
2019-03-17T23:11:18.179Z,2.37
2019-03-17T23:13:47.060Z,2.22
2019-03-17T23:16:15.980Z,1.42
2019-03-17T23:18:44.939Z,1.70
2019-03-17T23:21:13.893Z,2.60
2019-03-17T23:23:42.823Z,1.98
2019-03-17T23:26:11.741Z,1.90
2019-03-17T23:28:40.632Z,2.00
2019-03-17T23:31:09.631Z,2.20
2019-03-17T23:33:38.536Z,2.22
2019-03-17T23:36:07.464Z,2.58
2019-03-17T23:38:36.316Z,2.20
2019-03-17T23:41:05.814Z,2.20
2019-03-17T23:43:34.626Z,2.37
2019-03-17T23:46:03.597Z,2.55
2019-03-17T23:48:32.407Z,2.33
2019-03-17T23:51:01.411Z,2.30
2019-03-17T23:53:30.367Z,2.20
2019-03-17T23:55:59.214Z,2.33
2019-03-17T23:58:28.018Z,3.05
